HFU weather

Fundicion Residencial Heliport
Miguel Hidalgo, Distrito Federal, Mexico

Public forecast

Using degrees Celsius for public forecast. Weather courtesy of forecast.io.

METAR (pilot weather report)

Closest report is Licenciado Benito Juarez International Airport, 6.7 nm (12.3 km) E. Retrieved 2019/06/17 19:50 UTC (19 minutes ago):

MMMX 171950Z 09006KT 8SM FEW020 SCT200 27/03 A3024 NOSIG RMK 8/202 HZY AC TCU SE

TAF (pilot weather forecast)

Closest forecast is Licenciado Benito Juarez International Airport, 6.7 nm (12.3 km) E. Retrieved 2019/06/17 18:24 UTC (2 hours ago):

TAF MMMX 171721Z 1718/1824 03005KT 6SM HZ SCT020 SCT220 TX27/1722Z TN16/1812Z FM172200 09012KT 6SM HZ SCT020CB BKN090 TEMPO 1723/1803 6SM -TSRA BKN020CB FM180400 00000KT 6SM HZ SCT020 BKN080 FM181200 01005KT 5SM HZ SCT020 SCT220 FM181800 03006KT 6SM HZ SCT020 SCT080 FM182100 09012KT 6SM HZ VC RA BKN020CB OVC080 PROB40 1821/1824 3SM TSRA